Accueil
METAR-TAF:

METAR-TAF

Aéroports :

Aéroport de Touggourt - Sidi Mahdi

Touggourt, Algérie

latitude: 33-07N, longitude: 006-08E, altitude: 85 m

Observation

Le bulletin a été fait il y a 44 minutes, à 17:00 UTC
Vent 5 kt de sud
Température 45°C
Humidité 9%
Pression 1008 hPa
Visibilité 10 km ou plus
pas de nuages en-dessous de 1500 mètres et pas de cumulonimbus.

METAR: DAUK 211700Z 18005KT CAVOK 45/05 Q1008

Heure: 18:44 (17:44 UTC)

Prévision

Le bulletin a été fait il y a 3 heures et 44 minutes, à 14:00 UTC
Prévision valable du 21 à 15 UTC au 21 à 24 UTC
Vent 8 kt de sud/sud-est
Visibilité 10 km ou plus
pas de nuages en-dessous de 1500 mètres et pas de cumulonimbus.

TAF: DAUK 211400Z 2115/2124 16008KT CAVOK

Observations et prévisions météorologiques de plus de 4000 aéroports (messages METAR et TAF).

Les stations disponibles sont représentées par des disques jaunes et rouges sur la carte.

Passer la souris dessus pour voir le nom de la station.

Cliquer dessus pour voir les observations et prévisions météorologiques.

Pour changer de carte: cliquez sur les boutons verts avec une croix noire pour zoomer, sur le bouton vert avec un tiret pour effectuer un zoom arrière, ou sur les flèches vertes pour les cartes adjacentes.


METAR-TAF: